createdAt,value
2022-12-08T00:01:44.372Z,68.80
2022-12-08T00:04:12.785Z,69.70
2022-12-08T00:07:03.568Z,73.88
2022-12-08T00:09:39.388Z,64.50
2022-12-08T00:12:09.326Z,81.43
2022-12-08T00:14:44.291Z,77.07
2022-12-08T00:17:14.758Z,67.03
2022-12-08T00:19:43.701Z,79.43
2022-12-08T00:22:13.263Z,66.90
2022-12-08T00:24:46.146Z,66.57
2022-12-08T00:27:16.285Z,69.63
2022-12-08T00:29:45.939Z,76.05
2022-12-08T00:32:14.149Z,73.00
2022-12-08T00:34:43.188Z,75.00
2022-12-08T00:37:10.974Z,64.15
2022-12-08T00:39:39.052Z,63.70
2022-12-08T00:42:12.795Z,75.00
2022-12-08T00:44:42.085Z,85.78
2022-12-08T00:47:10.208Z,69.45
2022-12-08T00:49:38.300Z,67.07
2022-12-08T00:52:06.659Z,76.53
2022-12-08T00:54:35.018Z,69.50
2022-12-08T00:57:03.562Z,65.38
2022-12-08T00:59:31.754Z,74.93
2022-12-08T01:01:59.655Z,73.53
2022-12-08T01:04:31.371Z,67.57
2022-12-08T01:06:59.528Z,65.65
2022-12-08T01:09:27.699Z,52.67
2022-12-08T01:11:56.933Z,71.75
2022-12-08T01:14:27.753Z,74.03
2022-12-08T01:16:57.454Z,77.43
2022-12-08T01:19:26.176Z,60.28
2022-12-08T01:21:58.531Z,68.70
2022-12-08T01:24:27.285Z,66.15
2022-12-08T01:26:55.499Z,68.13
2022-12-08T01:29:24.126Z,63.30
2022-12-08T01:31:52.487Z,84.03
2022-12-08T01:34:20.516Z,71.18
2022-12-08T01:36:48.916Z,82.07
2022-12-08T01:39:18.830Z,80.38
2022-12-08T01:41:50.004Z,79.40
2022-12-08T01:44:18.908Z,74.95
2022-12-08T01:46:50.909Z,67.25
2022-12-08T01:49:30.542Z,77.95
2022-12-08T01:52:01.309Z,72.90
2022-12-08T01:54:37.493Z,86.77
2022-12-08T01:57:17.336Z,92.63
2022-12-08T02:00:10.647Z,72.63
2022-12-08T02:03:06.924Z,69.43
2022-12-08T02:05:38.176Z,83.93
2022-12-08T02:08:12.420Z,101.37
2022-12-08T02:10:44.501Z,101.22
2022-12-08T02:13:18.424Z,95.47
2022-12-08T02:16:32.765Z,90.75
2022-12-08T02:19:29.726Z,93.90
2022-12-08T02:22:15.096Z,104.63
2022-12-08T02:25:16.973Z,101.40
2022-12-08T02:28:04.968Z,109.68
2022-12-08T02:31:00.889Z,89.68
2022-12-08T02:34:11.091Z,77.72
2022-12-08T02:37:09.365Z,77.63
2022-12-08T02:39:53.741Z,99.85
2022-12-08T02:42:27.784Z,96.03
2022-12-08T02:45:02.202Z,92.03
2022-12-08T02:47:32.919Z,116.70
2022-12-08T02:50:01.837Z,106.60
2022-12-08T02:52:30.336Z,103.18
2022-12-08T02:55:05.381Z,106.78
2022-12-08T02:57:39.003Z,106.63
2022-12-08T03:00:10.368Z,85.53
2022-12-08T03:02:53.177Z,122.60
2022-12-08T03:06:01.620Z,94.38
2022-12-08T03:08:47.916Z,88.78
2022-12-08T03:11:38.962Z,92.45
2022-12-08T03:14:10.243Z,99.15
2022-12-08T03:16:42.166Z,99.40
2022-12-08T03:19:33.394Z,101.68
2022-12-08T03:22:04.072Z,79.10
2022-12-08T03:24:44.032Z,92.15
2022-12-08T03:27:21.072Z,85.00
2022-12-08T03:29:51.771Z,89.60
2022-12-08T03:32:39.816Z,92.97
2022-12-08T03:35:12.662Z,91.03
2022-12-08T03:37:41.453Z,101.95
2022-12-08T03:40:13.317Z,97.57
2022-12-08T03:42:41.584Z,90.53
2022-12-08T03:45:10.272Z,96.97
2022-12-08T03:47:38.924Z,71.70
2022-12-08T03:50:08.036Z,98.10
2022-12-08T03:52:36.522Z,98.63
2022-12-08T03:55:05.001Z,92.07
2022-12-08T03:57:33.972Z,95.10
2022-12-08T04:00:04.042Z,95.40
2022-12-08T04:02:32.817Z,98.63
2022-12-08T04:05:01.396Z,104.82
2022-12-08T04:07:30.671Z,95.30
2022-12-08T04:09:59.153Z,91.05
2022-12-08T04:12:27.977Z,97.60
2022-12-08T04:14:56.276Z,101.22
2022-12-08T04:17:24.720Z,91.43
2022-12-08T04:19:52.867Z,99.37
2022-12-08T04:22:21.337Z,99.18
2022-12-08T04:24:49.708Z,106.07
2022-12-08T04:27:18.104Z,121.00
2022-12-08T04:29:49.694Z,101.65
2022-12-08T04:32:18.312Z,96.83
2022-12-08T04:34:46.034Z,104.18
2022-12-08T04:37:14.742Z,94.13
2022-12-08T04:39:46.115Z,93.10
2022-12-08T04:42:16.165Z,107.05
2022-12-08T04:44:44.282Z,98.23
2022-12-08T04:47:12.864Z,95.63
2022-12-08T04:49:42.101Z,103.45
2022-12-08T04:52:10.802Z,92.50
2022-12-08T04:54:39.296Z,83.55
2022-12-08T04:57:07.523Z,75.20
2022-12-08T04:59:36.259Z,91.22
2022-12-08T05:02:05.017Z,78.57
2022-12-08T05:04:33.380Z,112.40
2022-12-08T05:07:01.268Z,98.88
2022-12-08T05:09:29.711Z,111.60
2022-12-08T05:11:57.612Z,94.88
2022-12-08T05:14:27.006Z,88.20
2022-12-08T05:16:55.032Z,92.82
2022-12-08T05:19:23.720Z,119.88
2022-12-08T05:21:51.580Z,100.17
2022-12-08T05:24:23.910Z,107.53
2022-12-08T05:26:52.545Z,107.45
2022-12-08T05:29:20.946Z,104.72
2022-12-08T05:31:49.533Z,118.53
2022-12-08T05:34:20.900Z,131.83
2022-12-08T05:36:49.912Z,104.20
2022-12-08T05:39:21.108Z,139.98
2022-12-08T05:41:49.614Z,120.10
2022-12-08T05:44:17.347Z,99.50
2022-12-08T05:46:45.760Z,104.03
2022-12-08T05:49:13.548Z,106.45
2022-12-08T05:51:41.759Z,119.85
2022-12-08T05:54:09.927Z,95.07
2022-12-08T05:56:38.038Z,99.55
2022-12-08T05:59:08.449Z,107.00
2022-12-08T06:01:37.330Z,88.50
2022-12-08T06:04:06.719Z,96.45
2022-12-08T06:06:36.170Z,90.75
2022-12-08T06:09:05.783Z,114.90
2022-12-08T06:11:35.381Z,103.60
2022-12-08T06:14:04.235Z,106.82
2022-12-08T06:16:33.473Z,110.00
2022-12-08T06:19:01.722Z,99.18
2022-12-08T06:21:30.112Z,103.28
2022-12-08T06:23:58.327Z,93.43
2022-12-08T06:26:26.995Z,87.63
2022-12-08T06:28:55.598Z,78.55
2022-12-08T06:31:26.224Z,97.28
2022-12-08T06:33:56.863Z,86.40
2022-12-08T06:36:29.768Z,87.47
2022-12-08T06:38:58.771Z,81.63
2022-12-08T06:41:29.629Z,69.63
2022-12-08T06:43:59.051Z,82.05
2022-12-08T06:46:31.060Z,78.40
2022-12-08T06:49:00.927Z,59.17
2022-12-08T06:51:29.488Z,88.15
2022-12-08T06:53:57.844Z,82.50
2022-12-08T06:56:28.573Z,90.60
2022-12-08T06:58:56.942Z,80.70
2022-12-08T07:01:25.167Z,81.67
2022-12-08T07:03:53.783Z,79.45
2022-12-08T07:06:24.416Z,77.78
2022-12-08T07:08:52.585Z,81.43
2022-12-08T07:11:22.334Z,79.75
2022-12-08T07:13:52.018Z,57.70
2022-12-08T07:16:22.106Z,68.18
2022-12-08T07:18:51.644Z,79.47
2022-12-08T07:21:20.502Z,70.03
2022-12-08T07:23:57.341Z,57.28
2022-12-08T07:26:27.907Z,68.43
2022-12-08T07:28:56.105Z,66.75
2022-12-08T07:31:25.962Z,59.05
2022-12-08T07:33:55.728Z,39.63
2022-12-08T07:36:25.511Z,55.35
2022-12-08T07:38:54.411Z,44.17
2022-12-08T07:41:26.708Z,54.63
2022-12-08T07:43:55.467Z,63.30
2022-12-08T07:46:26.337Z,57.92
2022-12-08T07:48:55.827Z,80.57
2022-12-08T07:51:25.343Z,58.23
2022-12-08T07:53:55.026Z,58.20
2022-12-08T07:56:24.271Z,52.88
2022-12-08T07:58:52.520Z,64.13
2022-12-08T08:01:29.377Z,80.45
2022-12-08T08:04:01.812Z,75.53
2022-12-08T08:06:30.287Z,77.15
2022-12-08T08:08:58.466Z,61.28
2022-12-08T08:11:26.610Z,53.78
2022-12-08T08:13:55.805Z,82.10
2022-12-08T08:16:24.276Z,73.40
2022-12-08T08:18:52.436Z,62.60
2022-12-08T08:21:44.358Z,58.13
2022-12-08T08:24:13.210Z,78.20
2022-12-08T08:26:41.527Z,56.15
2022-12-08T08:29:09.588Z,56.57
2022-12-08T08:31:37.879Z,76.18
2022-12-08T08:34:06.833Z,71.28
2022-12-08T08:36:35.971Z,63.45
2022-12-08T08:39:04.860Z,65.03
2022-12-08T08:41:33.347Z,65.67
2022-12-08T08:44:04.513Z,52.33
2022-12-08T08:46:32.678Z,75.03
2022-12-08T08:49:01.223Z,58.92
2022-12-08T08:51:30.130Z,62.88
2022-12-08T08:53:58.287Z,59.10
2022-12-08T08:56:27.320Z,58.38
2022-12-08T08:58:55.418Z,76.13
2022-12-08T09:01:29.010Z,69.13
2022-12-08T09:03:57.415Z,71.93
2022-12-08T09:06:26.217Z,75.80
2022-12-08T09:08:55.164Z,81.13
2022-12-08T09:11:23.953Z,55.28
2022-12-08T09:13:54.305Z,46.88
2022-12-08T09:16:25.043Z,49.22
2022-12-08T09:18:53.625Z,66.60
2022-12-08T09:21:24.942Z,64.90
2022-12-08T09:23:58.895Z,95.90
2022-12-08T09:26:28.904Z,70.65
2022-12-08T09:28:59.911Z,80.78
2022-12-08T09:31:28.046Z,90.57
2022-12-08T09:33:59.685Z,101.10
2022-12-08T09:36:27.955Z,92.70
2022-12-08T09:38:55.815Z,95.57
2022-12-08T09:41:35.897Z,93.05
2022-12-08T09:44:45.565Z,98.20
2022-12-08T09:47:19.345Z,95.72
2022-12-08T09:50:02.949Z,64.05
2022-12-08T09:52:36.250Z,64.03
2022-12-08T09:55:16.306Z,70.50
2022-12-08T09:57:57.174Z,67.73
2022-12-08T10:00:25.935Z,68.00
2022-12-08T10:02:54.067Z,75.63
2022-12-08T10:05:24.479Z,55.40
2022-12-08T10:08:30.115Z,61.20
2022-12-08T10:11:00.714Z,68.77
2022-12-08T10:14:25.901Z,46.03
2022-12-08T10:17:05.675Z,63.72
2022-12-08T10:19:35.604Z,68.90
2022-12-08T10:22:16.036Z,52.28
2022-12-08T10:25:06.393Z,72.80
2022-12-08T10:27:37.594Z,80.93
2022-12-08T10:30:17.422Z,91.28
2022-12-08T10:32:48.493Z,85.10
2022-12-08T10:35:19.292Z,72.35
2022-12-08T10:38:01.776Z,70.17
2022-12-08T10:40:40.538Z,69.25
2022-12-08T10:43:27.732Z,70.22
2022-12-08T10:45:55.789Z,61.17
2022-12-08T10:48:28.752Z,69.13
2022-12-08T10:50:59.261Z,55.50
2022-12-08T10:53:44.707Z,63.22
2022-12-08T10:56:16.632Z,61.45
2022-12-08T10:58:47.779Z,61.08
2022-12-08T11:01:20.663Z,63.53
2022-12-08T11:03:50.857Z,58.13
2022-12-08T11:06:22.167Z,64.18
2022-12-08T11:08:57.095Z,59.35
2022-12-08T11:11:51.588Z,70.47
2022-12-08T11:14:29.225Z,54.00
2022-12-08T11:17:09.040Z,101.67
2022-12-08T11:20:08.264Z,49.65
2022-12-08T11:22:43.076Z,58.80
2022-12-08T11:25:20.152Z,56.25
2022-12-08T11:27:54.185Z,53.17
2022-12-08T11:30:30.082Z,56.50
2022-12-08T11:33:14.696Z,55.47
2022-12-08T11:35:46.261Z,64.15
2022-12-08T11:38:34.390Z,61.03
2022-12-08T11:41:16.527Z,65.28
2022-12-08T11:44:00.418Z,75.00
2022-12-08T11:46:35.123Z,64.90
2022-12-08T11:49:10.305Z,55.42
2022-12-08T11:51:46.065Z,55.75
2022-12-08T11:54:17.604Z,62.53
2022-12-08T11:56:58.214Z,60.87
2022-12-08T11:59:30.707Z,63.45
2022-12-08T12:02:02.085Z,56.75
2022-12-08T12:04:36.412Z,60.63
2022-12-08T12:07:24.551Z,54.05
2022-12-08T12:10:19.005Z,53.20
2022-12-08T12:13:14.221Z,43.05
2022-12-08T12:16:01.200Z,52.55
2022-12-08T12:18:41.145Z,37.40
2022-12-08T12:21:24.490Z,39.08
2022-12-08T12:23:57.790Z,43.87
2022-12-08T12:26:30.999Z,39.28
2022-12-08T12:29:24.474Z,36.58
2022-12-08T12:31:58.844Z,27.85
2022-12-08T12:34:38.668Z,31.35
2022-12-08T12:37:12.637Z,30.93
2022-12-08T12:40:31.940Z,32.45
2022-12-08T12:43:04.300Z,37.35
2022-12-08T12:45:36.639Z,30.83
2022-12-08T12:48:07.279Z,27.38
2022-12-08T12:50:35.938Z,18.23
2022-12-08T12:53:26.650Z,28.88
2022-12-08T12:56:04.560Z,20.35
2022-12-08T12:58:32.894Z,28.65
2022-12-08T13:01:12.392Z,28.50
2022-12-08T13:03:47.828Z,22.70
2022-12-08T13:06:24.050Z,23.70
2022-12-08T13:11:56.392Z,22.38
2022-12-08T13:14:34.304Z,29.83
2022-12-08T13:17:08.074Z,21.23
2022-12-08T13:19:38.166Z,18.17
2022-12-08T13:22:45.039Z,23.27
2022-12-08T13:25:40.613Z,22.77
2022-12-08T13:28:21.134Z,24.52
2022-12-08T13:30:59.200Z,16.93
2022-12-08T13:33:38.667Z,20.10
2022-12-08T13:36:07.032Z,15.50
2022-12-08T13:38:38.102Z,24.45
2022-12-08T13:41:21.373Z,24.58
2022-12-08T13:59:26.033Z,21.73
2022-12-08T14:01:57.239Z,21.65
2022-12-08T14:04:54.509Z,18.85
2022-12-08T14:07:15.403Z,22.55
2022-12-08T14:09:44.005Z,22.73
2022-12-08T14:12:21.000Z,23.13
2022-12-08T14:15:04.883Z,21.48
2022-12-08T14:17:34.906Z,23.40
2022-12-08T14:20:05.123Z,19.42
2022-12-08T14:22:36.403Z,23.65
2022-12-08T14:25:06.945Z,23.70
2022-12-08T14:27:38.485Z,27.63
2022-12-08T14:30:16.885Z,19.42
2022-12-08T14:32:58.980Z,14.45
2022-12-08T14:35:35.048Z,17.33
2022-12-08T14:38:14.973Z,25.00
2022-12-08T14:40:48.871Z,13.25
2022-12-08T14:43:21.346Z,18.25
2022-12-08T14:45:53.994Z,17.63
2022-12-08T14:48:41.156Z,18.17
2022-12-08T14:51:21.003Z,16.80
2022-12-08T14:54:00.339Z,17.58
2022-12-08T14:56:42.032Z,18.27
2022-12-08T14:59:13.120Z,16.10
2022-12-08T15:01:42.830Z,20.05
2022-12-08T15:04:13.726Z,21.90
2022-12-08T15:06:56.584Z,16.52
2022-12-08T15:09:38.037Z,18.55
2022-12-08T15:12:14.425Z,21.30
2022-12-08T15:15:10.985Z,21.98
2022-12-08T15:17:52.417Z,16.30
2022-12-08T15:20:31.693Z,12.70
2022-12-08T15:23:03.814Z,18.08
2022-12-08T15:25:32.268Z,20.67
2022-12-08T15:28:02.407Z,21.13
2022-12-08T15:30:30.859Z,17.13
2022-12-08T15:32:59.408Z,19.05
2022-12-08T15:35:27.933Z,19.00
2022-12-08T15:37:56.172Z,32.90
2022-12-08T15:40:26.346Z,30.95
2022-12-08T15:42:54.645Z,25.20
2022-12-08T15:45:29.100Z,29.35
2022-12-08T15:47:57.666Z,30.58
2022-12-08T15:50:28.665Z,28.98
2022-12-08T15:52:56.840Z,28.48
2022-12-08T15:55:24.685Z,26.67
2022-12-08T16:00:52.584Z,37.58
2022-12-08T16:04:09.064Z,30.98
2022-12-08T16:09:30.644Z,35.50
2022-12-08T16:12:17.782Z,29.42
2022-12-08T16:17:34.917Z,31.42
2022-12-08T16:20:04.273Z,39.47
2022-12-08T16:25:23.159Z,43.30
2022-12-08T16:28:05.520Z,44.97
2022-12-08T16:30:37.717Z,33.80
2022-12-08T16:33:06.235Z,34.90
2022-12-08T16:35:34.522Z,33.57
2022-12-08T16:38:02.629Z,36.17
2022-12-08T16:40:31.313Z,31.10
2022-12-08T16:42:59.427Z,41.03
2022-12-08T16:45:31.357Z,51.40
2022-12-08T16:48:01.885Z,50.97
2022-12-08T16:50:32.787Z,59.90
2022-12-08T16:53:07.341Z,56.15
2022-12-08T16:55:35.917Z,59.55
2022-12-08T16:58:04.084Z,60.72
2022-12-08T17:00:37.531Z,61.22
2022-12-08T17:03:08.545Z,53.40
2022-12-08T17:05:37.158Z,61.03
2022-12-08T17:08:05.912Z,54.65
2022-12-08T17:10:39.895Z,46.67
2022-12-08T17:13:08.991Z,41.55
2022-12-08T17:15:37.175Z,38.73
2022-12-08T17:18:05.281Z,35.90
2022-12-08T17:20:36.627Z,36.20
2022-12-08T17:23:04.663Z,29.20
2022-12-08T17:25:32.720Z,28.30
2022-12-08T17:28:00.956Z,26.67
2022-12-08T17:30:28.848Z,28.33
2022-12-08T17:32:57.519Z,29.92
2022-12-08T17:35:25.702Z,29.05
2022-12-08T17:37:54.009Z,31.15
2022-12-08T17:40:23.657Z,32.00
2022-12-08T17:42:55.087Z,33.67
2022-12-08T17:45:22.991Z,37.20
2022-12-08T17:47:51.160Z,36.30
2022-12-08T17:50:19.405Z,32.08
2022-12-08T17:52:51.200Z,31.57
2022-12-08T17:55:19.322Z,37.25
2022-12-08T17:57:47.379Z,38.15
2022-12-08T18:00:16.416Z,30.85
2022-12-08T18:02:44.386Z,38.97
2022-12-08T18:05:12.493Z,34.85
2022-12-08T18:07:40.604Z,41.63
2022-12-08T18:10:11.990Z,39.60
2022-12-08T18:12:40.981Z,33.55
2022-12-08T18:15:12.608Z,32.08
2022-12-08T18:17:40.939Z,34.22
2022-12-08T18:20:09.785Z,36.58
2022-12-08T18:22:38.004Z,32.60
2022-12-08T18:25:07.296Z,31.25
2022-12-08T18:27:43.024Z,33.50
2022-12-08T18:30:16.539Z,34.25
2022-12-08T18:32:45.022Z,27.38
2022-12-08T18:35:13.873Z,26.23
2022-12-08T18:37:43.419Z,27.70
2022-12-08T18:40:13.067Z,24.85
2022-12-08T18:42:41.035Z,29.17
2022-12-08T18:45:09.353Z,25.65
2022-12-08T18:47:40.308Z,24.90
2022-12-08T18:50:11.670Z,23.65
2022-12-08T18:52:42.892Z,20.92
2022-12-08T18:55:11.436Z,17.30
2022-12-08T18:57:43.458Z,22.98
2022-12-08T19:00:18.205Z,21.33
2022-12-08T19:02:46.594Z,19.08
2022-12-08T19:05:15.035Z,20.98
2022-12-08T19:07:43.348Z,22.45
2022-12-08T19:10:12.395Z,23.35
2022-12-08T19:12:40.712Z,21.93
2022-12-08T19:15:09.726Z,21.77
2022-12-08T19:17:37.926Z,19.92
2022-12-08T19:20:07.250Z,19.67
2022-12-08T19:22:35.394Z,22.15
2022-12-08T19:25:04.258Z,21.43
2022-12-08T19:27:34.494Z,19.95
2022-12-08T19:30:02.729Z,16.48
2022-12-08T19:32:31.662Z,15.60
2022-12-08T19:34:59.862Z,17.25
2022-12-08T19:37:27.848Z,12.83
2022-12-08T19:40:14.841Z,16.63
2022-12-08T19:43:01.572Z,11.23
2022-12-08T19:45:30.220Z,15.18
2022-12-08T19:47:58.221Z,11.75
2022-12-08T19:50:38.476Z,19.33
2022-12-08T19:53:10.537Z,16.05
2022-12-08T19:55:39.355Z,15.40
2022-12-08T19:58:08.312Z,17.80
2022-12-08T20:00:37.881Z,12.18
2022-12-08T20:03:07.129Z,16.53
2022-12-08T20:05:37.352Z,14.60
2022-12-08T20:08:05.887Z,10.50
2022-12-08T20:10:38.707Z,13.00
2022-12-08T20:13:26.900Z,14.40
2022-12-08T20:15:55.363Z,17.90
2022-12-08T20:18:23.901Z,14.95
2022-12-08T20:20:52.523Z,14.43
2022-12-08T20:23:20.605Z,13.65
2022-12-08T20:25:48.832Z,12.80
2022-12-08T20:28:16.940Z,11.90
2022-12-08T20:30:47.324Z,14.32
2022-12-08T20:33:18.595Z,14.25
2022-12-08T20:35:47.624Z,14.65
2022-12-08T20:38:15.843Z,19.38
2022-12-08T20:40:44.718Z,11.93
2022-12-08T20:43:12.804Z,12.82
2022-12-08T20:45:40.927Z,16.52
2022-12-08T20:48:09.043Z,12.07
2022-12-08T20:50:37.308Z,17.35
2022-12-08T20:53:05.317Z,11.73
2022-12-08T20:55:35.749Z,15.45
2022-12-08T20:58:04.398Z,15.73
2022-12-08T21:00:32.288Z,18.52
2022-12-08T21:03:01.636Z,20.25
2022-12-08T21:05:30.049Z,20.87
2022-12-08T21:07:58.320Z,14.38
2022-12-08T21:10:27.763Z,14.35
2022-12-08T21:12:56.136Z,20.10
2022-12-08T21:15:24.115Z,18.90
2022-12-08T21:17:52.625Z,15.63
2022-12-08T21:20:21.713Z,16.45
2022-12-08T21:22:49.789Z,19.33
2022-12-08T21:25:18.415Z,20.15
2022-12-08T21:27:47.128Z,17.02
2022-12-08T21:30:15.648Z,17.53
2022-12-08T21:32:44.099Z,13.05
2022-12-08T21:35:12.774Z,18.33
2022-12-08T21:37:41.052Z,15.18
2022-12-08T21:40:09.907Z,19.45
2022-12-08T21:42:44.550Z,14.03
2022-12-08T21:45:14.290Z,16.92
2022-12-08T21:47:43.230Z,21.95
2022-12-08T21:50:12.564Z,16.27
2022-12-08T21:52:43.682Z,10.38
2022-12-08T21:55:13.501Z,17.03
2022-12-08T21:57:41.816Z,15.52
2022-12-08T22:00:14.082Z,11.30
2022-12-08T22:02:43.213Z,11.95
2022-12-08T22:05:12.246Z,13.93
2022-12-08T22:07:41.417Z,14.13
2022-12-08T22:10:11.950Z,13.90
2022-12-08T22:12:41.452Z,15.02
2022-12-08T22:15:11.909Z,15.75
2022-12-08T22:17:42.364Z,12.63
2022-12-08T22:20:15.950Z,16.00
2022-12-08T22:22:44.784Z,16.73
2022-12-08T22:25:13.205Z,14.93
2022-12-08T22:27:42.641Z,19.85
2022-12-08T22:30:12.352Z,14.85
2022-12-08T22:32:41.000Z,14.33
2022-12-08T22:35:09.324Z,15.00
2022-12-08T22:37:37.877Z,17.10
2022-12-08T22:40:07.495Z,17.27
2022-12-08T22:42:36.437Z,13.52
2022-12-08T22:45:04.666Z,15.60
2022-12-08T22:47:32.983Z,13.20
2022-12-08T22:50:01.121Z,15.45
2022-12-08T22:52:29.517Z,12.05
2022-12-08T22:54:57.356Z,10.70
2022-12-08T22:57:25.641Z,14.57
2022-12-08T22:59:53.618Z,15.63
2022-12-08T23:02:21.836Z,16.90
2022-12-08T23:04:50.322Z,15.77
2022-12-08T23:07:19.030Z,19.83
2022-12-08T23:09:48.213Z,14.63
2022-12-08T23:12:16.711Z,11.43
2022-12-08T23:14:44.669Z,14.55
2022-12-08T23:17:13.182Z,17.30
2022-12-08T23:19:41.577Z,10.82
2022-12-08T23:22:10.163Z,21.70
2022-12-08T23:24:38.101Z,20.23
2022-12-08T23:27:06.202Z,17.17
2022-12-08T23:29:34.338Z,15.48
2022-12-08T23:32:02.900Z,18.55
2022-12-08T23:34:31.188Z,17.52
2022-12-08T23:36:59.220Z,19.60
2022-12-08T23:39:27.161Z,18.10
2022-12-08T23:41:55.341Z,25.13
2022-12-08T23:44:23.393Z,21.45
2022-12-08T23:46:51.704Z,21.80
2022-12-08T23:49:22.111Z,28.67
2022-12-08T23:51:50.820Z,25.90
2022-12-08T23:54:18.885Z,23.63
2022-12-08T23:56:47.221Z,22.80
2022-12-08T23:59:15.303Z,31.63
